Time;durP1;ratioP1;P1;durP2;ratioP2;P2;SDS_P1;SDS_P2;PMS_P1;PMS_P2;Temp;Humidity;BMP_temperature;BMP_pressure;BME280_temperature;BME280_humidity;BME280_pressure;Samples;Min_cycle;Max_cycle;Signal;HPM_P1;HPM_P2
2023/06/14 00:01:35;;;;;;;8.43;5.07;;;;;;;-144.57;100.00;62443.72;4954509;29;20063;-67
2023/06/14 00:04:01;;;;;;;10.05;5.28;;;;;;;-144.57;100.00;62443.72;4955199;29;20098;-67
2023/06/14 00:06:28;;;;;;;8.27;5.07;;;;;;;-144.57;100.00;62443.72;4917776;29;20134;-67
2023/06/14 00:08:54;;;;;;;12.55;4.95;;;;;;;-144.57;100.00;62443.72;4918573;29;20047;-67
2023/06/14 00:11:20;;;;;;;9.80;5.00;;;;;;;-144.57;100.00;62443.72;4928594;29;20046;-67
2023/06/14 00:13:46;;;;;;;10.32;5.45;;;;;;;-144.57;100.00;62443.72;4953937;29;20051;-68
2023/06/14 00:16:12;;;;;;;10.07;5.30;;;;;;;-144.57;100.00;62443.72;4902515;29;20486;-67
2023/06/14 00:18:38;;;;;;;11.73;5.43;;;;;;;-144.57;100.00;62443.72;4945739;29;20078;-68
2023/06/14 00:21:06;;;;;;;7.80;5.47;;;;;;;-144.57;100.00;62443.72;4954475;28;20547;-67
2023/06/14 00:23:32;;;;;;;9.45;5.18;;;;;;;-144.57;100.00;62443.72;4954257;29;20448;-67
2023/06/14 00:25:57;;;;;;;10.82;5.50;;;;;;;-144.57;100.00;62443.72;4936593;29;20043;-68
2023/06/14 00:28:23;;;;;;;9.45;5.43;;;;;;;-144.57;100.00;62443.72;4953598;29;20090;-67
2023/06/14 00:30:49;;;;;;;7.65;5.30;;;;;;;-144.57;100.00;62443.72;4936835;29;20081;-67
2023/06/14 00:33:15;;;;;;;8.23;5.05;;;;;;;-144.57;100.00;62443.72;4953743;29;20050;-67
2023/06/14 00:35:42;;;;;;;8.80;5.20;;;;;;;-144.57;100.00;62443.72;4937089;29;20515;-66
2023/06/14 00:38:08;;;;;;;9.55;6.28;;;;;;;-144.57;100.00;62443.72;4953957;29;20145;-68
2023/06/14 00:40:34;;;;;;;10.07;5.65;;;;;;;-144.57;100.00;62443.72;4936801;29;20398;-67
2023/06/14 00:43:00;;;;;;;12.25;5.30;;;;;;;-144.57;100.00;62443.72;4952364;29;20062;-67
2023/06/14 00:45:26;;;;;;;8.60;5.63;;;;;;;-144.57;100.00;62443.72;4936076;29;20093;-68
2023/06/14 00:47:55;;;;;;;8.50;5.40;;;;;;;-144.57;100.00;62443.72;4935284;29;20053;-67
2023/06/14 00:50:21;;;;;;;13.90;5.30;;;;;;;-144.57;100.00;62443.72;4936197;29;20078;-66
2023/06/14 00:52:47;;;;;;;8.90;5.38;;;;;;;-144.57;100.00;62443.72;4935225;29;20533;-66
2023/06/14 00:55:13;;;;;;;9.73;5.45;;;;;;;-144.57;100.00;62443.72;4935619;29;20043;-66
2023/06/14 00:57:39;;;;;;;9.88;5.50;;;;;;;-144.57;100.00;62443.72;4952854;29;20510;-67
2023/06/14 01:00:09;;;;;;;10.50;5.45;;;;;;;-144.57;100.00;62443.72;4936092;29;20090;-67
2023/06/14 01:02:37;;;;;;;9.15;5.65;;;;;;;-144.57;100.00;62443.72;4953041;28;20040;-66
2023/06/14 01:05:03;;;;;;;8.43;5.50;;;;;;;-144.57;100.00;62443.72;4919399;29;20045;-66
2023/06/14 01:07:51;;;;;;;9.68;5.75;;;;;;;-144.57;100.00;62443.72;4953606;29;20039;-67
2023/06/14 01:10:26;;;;;;;9.85;5.20;;;;;;;-144.57;100.00;62443.72;4920994;29;20059;-66
2023/06/14 01:13:20;;;;;;;8.90;5.43;;;;;;;-144.57;100.00;62443.72;4935567;29;20039;-67
2023/06/14 01:15:47;;;;;;;9.10;5.70;;;;;;;-144.57;100.00;62443.72;4935544;28;20137;-67
2023/06/14 01:18:18;;;;;;;9.43;5.60;;;;;;;-144.57;100.00;62443.72;4952096;29;20074;-67
2023/06/14 01:20:49;;;;;;;8.32;5.75;;;;;;;-144.57;100.00;62443.72;4935958;29;20130;-68
2023/06/14 01:23:19;;;;;;;7.05;5.30;;;;;;;-144.57;100.00;62443.72;4934776;29;20046;-67
2023/06/14 01:25:46;;;;;;;8.70;5.80;;;;;;;-144.57;100.00;62443.72;4935886;29;20535;-68
2023/06/14 01:28:14;;;;;;;9.60;6.18;;;;;;;-144.57;100.00;62443.72;4934758;29;20043;-68
2023/06/14 01:30:47;;;;;;;6.03;5.03;;;;;;;-144.57;100.00;62443.72;4935733;29;20043;-67
2023/06/14 01:33:16;;;;;;;7.70;5.55;;;;;;;-144.57;100.00;62443.72;4920076;29;20043;-67
2023/06/14 01:35:44;;;;;;;11.18;5.38;;;;;;;-144.57;100.00;62443.72;4935414;29;20588;-67
2023/06/14 01:38:10;;;;;;;7.80;5.30;;;;;;;-144.57;100.00;62443.72;4903820;29;20102;-68
2023/06/14 01:40:36;;;;;;;8.63;5.63;;;;;;;-144.57;100.00;62443.72;4934906;29;20504;-67
2023/06/14 01:43:03;;;;;;;10.95;5.25;;;;;;;-144.57;100.00;62443.72;4952480;29;20509;-68
2023/06/14 01:45:29;;;;;;;7.63;5.50;;;;;;;-144.57;100.00;62443.72;4919053;29;20035;-68
2023/06/14 01:47:56;;;;;;;8.70;5.05;;;;;;;-144.57;100.00;62443.72;4935261;29;20051;-68
2023/06/14 01:50:22;;;;;;;7.40;4.38;;;;;;;-144.57;100.00;62443.72;4934148;29;20105;-68
2023/06/14 01:52:47;;;;;;;6.70;4.57;;;;;;;-144.57;100.00;62443.72;4934934;29;20043;-67
2023/06/14 01:55:13;;;;;;;6.85;4.88;;;;;;;-144.57;100.00;62443.72;4951609;28;20142;-67
2023/06/14 01:57:39;;;;;;;5.97;4.70;;;;;;;-144.57;100.00;62443.72;4935107;29;20058;-68
2023/06/14 02:00:12;;;;;;;6.43;4.47;;;;;;;-144.57;100.00;62443.72;4934978;29;20039;-68
2023/06/14 02:02:41;;;;;;;11.30;6.35;;;;;;;-144.57;100.00;62443.72;4951891;29;20067;-67
2023/06/14 02:05:07;;;;;;;8.48;4.25;;;;;;;-144.57;100.00;62443.72;4934973;29;20126;-67
2023/06/14 02:07:33;;;;;;;5.25;4.18;;;;;;;-144.57;100.00;62443.72;4918446;29;20075;-68
2023/06/14 02:09:59;;;;;;;9.02;4.40;;;;;;;-144.57;100.00;62443.72;4934367;29;20043;-67
2023/06/14 02:12:25;;;;;;;7.82;5.20;;;;;;;-144.57;100.00;62443.72;4933892;29;20102;-68
2023/06/14 02:14:51;;;;;;;5.43;4.50;;;;;;;-144.57;100.00;62443.72;4937587;29;20497;-67
2023/06/14 02:17:17;;;;;;;8.13;4.82;;;;;;;-144.57;100.00;62443.72;4937894;29;20039;-67
2023/06/14 02:19:42;;;;;;;7.68;4.60;;;;;;;-144.57;100.00;62443.72;4938533;29;20050;-67
2023/06/14 02:22:08;;;;;;;7.72;4.82;;;;;;;-144.57;100.00;62443.72;4938192;29;20040;-67
2023/06/14 02:24:35;;;;;;;8.77;4.65;;;;;;;-144.57;100.00;62443.72;4938819;29;20043;-67
2023/06/14 02:27:02;;;;;;;7.40;4.55;;;;;;;-144.57;100.00;62443.72;4925254;29;20044;-67
2023/06/14 02:29:27;;;;;;;8.02;5.10;;;;;;;-144.57;100.00;62443.72;4937852;29;20505;-67
2023/06/14 02:31:53;;;;;;;7.10;4.80;;;;;;;-144.57;100.00;62443.72;4938428;29;20078;-67
2023/06/14 02:34:21;;;;;;;5.25;4.47;;;;;;;-144.57;100.00;62443.72;4906676;29;20142;-67
2023/06/14 02:36:47;;;;;;;6.80;4.70;;;;;;;-144.57;100.00;62443.72;4938807;29;20043;-68
2023/06/14 02:39:14;;;;;;;6.00;4.78;;;;;;;-144.57;100.00;62443.72;4905881;28;20506;-68
2023/06/14 02:41:39;;;;;;;7.68;5.22;;;;;;;-144.57;100.00;62443.72;4922494;29;20043;-67
2023/06/14 02:44:06;;;;;;;11.02;5.25;;;;;;;-144.57;100.00;62443.72;4955556;29;20764;-66
2023/06/14 02:46:31;;;;;;;5.38;4.63;;;;;;;-144.57;100.00;62443.72;4956190;29;20105;-67
2023/06/14 02:48:57;;;;;;;8.85;5.10;;;;;;;-144.57;100.00;62443.72;4938680;29;20497;-67
2023/06/14 02:51:23;;;;;;;6.43;5.03;;;;;;;-144.57;100.00;62443.72;4939006;29;20170;-67
2023/06/14 02:53:48;;;;;;;7.85;4.82;;;;;;;-144.57;100.00;62443.72;4907418;29;20043;-69
2023/06/14 02:56:17;;;;;;;7.40;4.70;;;;;;;-144.57;100.00;62443.72;4956657;28;20430;-67
2023/06/14 02:58:43;;;;;;;8.00;4.80;;;;;;;-144.57;100.00;62443.72;4939138;29;20113;-66
2023/06/14 03:01:12;;;;;;;9.30;5.35;;;;;;;-144.57;100.00;62443.72;4913614;29;20067;-68
2023/06/14 03:03:38;;;;;;;7.43;5.35;;;;;;;-144.57;100.00;62443.72;4916813;29;20051;-66
2023/06/14 03:06:04;;;;;;;10.48;5.22;;;;;;;-144.57;100.00;62443.72;4916591;29;20056;-68
2023/06/14 03:08:38;;;;;;;11.05;5.35;;;;;;;-144.57;100.00;62443.72;4916106;29;20058;-67
2023/06/14 03:11:05;;;;;;;14.52;5.63;;;;;;;-144.57;100.00;62443.72;4899935;29;20106;-67
2023/06/14 03:13:33;;;;;;;7.32;5.07;;;;;;;-144.57;100.00;62443.72;4899989;29;20048;-66
2023/06/14 03:15:59;;;;;;;8.20;5.45;;;;;;;-144.57;100.00;62443.72;4915386;29;20052;-67
2023/06/14 03:18:26;;;;;;;8.05;5.00;;;;;;;-144.57;100.00;62443.72;4915800;29;20058;-67
2023/06/14 03:20:53;;;;;;;7.18;5.00;;;;;;;-144.57;100.00;62443.72;4917502;29;20108;-66
2023/06/14 03:23:21;;;;;;;8.23;4.90;;;;;;;-144.57;100.00;62443.72;4884519;29;20518;-64
2023/06/14 03:25:47;;;;;;;6.50;4.90;;;;;;;-144.57;100.00;62443.72;4883278;29;20044;-68
2023/06/14 03:28:13;;;;;;;8.13;4.63;;;;;;;-144.57;100.00;62443.72;4915409;29;20050;-67
2023/06/14 03:30:38;;;;;;;10.35;5.43;;;;;;;-144.57;100.00;62443.72;4914676;29;20072;-67
2023/06/14 03:33:06;;;;;;;9.50;5.10;;;;;;;-144.57;100.00;62443.72;4899547;29;20075;-68
2023/06/14 03:35:35;;;;;;;;;;;;;;;-144.57;100.00;62443.72;4915159;29;20069;-67
2023/06/14 03:38:02;;;;;;;9.50;4.75;;;;;;;-144.57;100.00;62443.72;4915993;29;20583;-68
2023/06/14 03:40:28;;;;;;;5.80;4.78;;;;;;;-144.57;100.00;62443.72;4915401;29;20048;-66
2023/06/14 03:43:00;;;;;;;6.32;4.90;;;;;;;-144.57;100.00;62443.72;4915293;29;20048;-66
2023/06/14 03:45:26;;;;;;;7.40;5.05;;;;;;;-144.57;100.00;62443.72;4930462;29;20103;-66
2023/06/14 03:47:52;;;;;;;11.02;5.55;;;;;;;-144.57;100.00;62443.72;4898790;29;20123;-66
2023/06/14 03:50:18;;;;;;;9.15;5.20;;;;;;;-144.57;100.00;62443.72;4914964;29;20045;-67
2023/06/14 03:52:44;;;;;;;7.63;4.85;;;;;;;-144.57;100.00;62443.72;4883918;29;20096;-67
2023/06/14 03:55:13;;;;;;;8.05;5.25;;;;;;;-144.57;100.00;62443.72;4900214;29;20118;-67
2023/06/14 03:57:40;;;;;;;16.67;5.10;;;;;;;-144.57;100.00;62443.72;4915644;29;20052;-67
2023/06/14 04:00:11;;;;;;;6.95;4.93;;;;;;;-144.57;100.00;62443.72;4915496;29;20051;-67
2023/06/14 04:02:40;;;;;;;10.88;4.97;;;;;;;-144.57;100.00;62443.72;4952577;29;20051;-67
2023/06/14 04:05:08;;;;;;;10.10;5.25;;;;;;;-144.57;100.00;62443.72;4936387;29;20050;-68
2023/06/14 04:07:44;;;;;;;8.23;4.90;;;;;;;-144.57;100.00;62443.72;4936474;29;20049;-67
2023/06/14 04:10:13;;;;;;;9.40;4.40;;;;;;;-144.57;100.00;62443.72;4954218;28;20035;-68
2023/06/14 04:12:39;;;;;;;8.38;4.38;;;;;;;-144.57;100.00;62443.72;4954988;29;20051;-68
2023/06/14 04:15:06;;;;;;;9.50;4.70;;;;;;;-144.57;100.00;62443.72;4937144;29;20039;-68
2023/06/14 04:17:35;;;;;;;8.52;4.65;;;;;;;-144.57;100.00;62443.72;4937139;29;20055;-67
2023/06/14 04:20:06;;;;;;;6.57;4.57;;;;;;;-144.57;100.00;62443.72;4953043;29;20045;-67
2023/06/14 04:22:33;;;;;;;6.15;4.72;;;;;;;-144.57;100.00;62443.72;4937083;29;20055;-68
2023/06/14 04:24:59;;;;;;;10.93;5.22;;;;;;;-144.57;100.00;62443.72;4921771;29;20122;-67
2023/06/14 04:27:27;;;;;;;8.68;4.30;;;;;;;-144.57;100.00;62443.72;4953146;29;20501;-67
2023/06/14 04:29:56;;;;;;;9.65;4.32;;;;;;;-144.57;100.00;62443.72;4921159;29;20081;-67
2023/06/14 04:32:33;;;;;;;7.28;4.78;;;;;;;-144.57;100.00;62443.72;4937495;29;20502;-67
2023/06/14 04:35:03;;;;;;;6.57;4.65;;;;;;;-144.57;100.00;62443.72;4936825;29;20061;-67
2023/06/14 04:37:30;;;;;;;12.38;4.95;;;;;;;-144.57;100.00;62443.72;4936612;29;20090;-66
2023/06/14 04:39:57;;;;;;;7.88;4.20;;;;;;;-144.57;100.00;62443.72;4920646;29;20055;-68
2023/06/14 04:42:25;;;;;;;5.43;3.97;;;;;;;-144.57;100.00;62443.72;4920518;29;20143;-68
2023/06/14 04:44:55;;;;;;;6.55;4.53;;;;;;;-144.57;100.00;62443.72;4935135;29;20130;-68
2023/06/14 04:47:24;;;;;;;;;;;;;;;-144.57;100.00;62443.72;4932426;29;20039;-68
2023/06/14 04:49:53;;;;;;;8.00;4.75;;;;;;;-144.57;100.00;62443.72;4934939;29;20353;-69
2023/06/14 04:52:20;;;;;;;8.75;4.35;;;;;;;-144.57;100.00;62443.72;4935922;29;20046;-69
2023/06/14 04:54:48;;;;;;;10.40;4.38;;;;;;;-144.57;100.00;62443.72;4935534;29;20031;-68
2023/06/14 04:57:21;;;;;;;8.00;4.00;;;;;;;-144.57;100.00;62443.72;4935877;29;20047;-69
2023/06/14 04:59:54;;;;;;;4.70;3.70;;;;;;;-144.57;100.00;62443.72;4947847;29;20082;-67
2023/06/14 05:02:24;;;;;;;7.20;4.03;;;;;;;-144.57;100.00;62443.72;4932375;29;20195;-67
2023/06/14 05:04:50;;;;;;;7.93;4.20;;;;;;;-144.57;100.00;62443.72;4935045;29;20070;-68
2023/06/14 05:07:16;;;;;;;6.25;3.45;;;;;;;-144.57;100.00;62443.72;4904003;29;20086;-68
2023/06/14 05:09:42;;;;;;;9.75;3.92;;;;;;;-144.57;100.00;62443.72;4935046;29;20031;-69
2023/06/14 05:12:08;;;;;;;6.13;3.97;;;;;;;-144.57;100.00;62443.72;4919182;29;20055;-67
2023/06/14 05:14:35;;;;;;;7.78;3.70;;;;;;;-144.57;100.00;62443.72;4933998;29;20482;-66
2023/06/14 05:17:02;;;;;;;6.70;4.05;;;;;;;-144.57;100.00;62443.72;4900790;29;20541;-67
2023/06/14 05:19:28;;;;;;;5.85;4.00;;;;;;;-144.57;100.00;62443.72;4952599;28;20079;-67
2023/06/14 05:21:54;;;;;;;7.32;4.18;;;;;;;-144.57;100.00;62443.72;4952334;29;20129;-67
2023/06/14 05:24:19;;;;;;;7.45;4.00;;;;;;;-144.57;100.00;62443.72;4952738;29;20179;-68
2023/06/14 05:26:45;;;;;;;4.97;3.38;;;;;;;-144.57;100.00;62443.72;4951756;29;20201;-67
2023/06/14 05:29:11;;;;;;;5.82;4.45;;;;;;;-144.57;100.00;62443.72;4952333;29;20039;-69
2023/06/14 05:31:37;;;;;;;6.70;3.30;;;;;;;-144.57;100.00;62443.72;4951617;29;20050;-69
2023/06/14 05:34:03;;;;;;;6.85;3.55;;;;;;;-144.57;100.00;62443.72;4952189;28;20126;-68
2023/06/14 05:36:29;;;;;;;8.23;3.80;;;;;;;-144.57;100.00;62443.72;4903306;29;20094;-67
2023/06/14 05:38:59;;;;;;;5.95;3.55;;;;;;;-144.57;100.00;62443.72;4935917;29;20043;-67
2023/06/14 05:41:27;;;;;;;4.28;3.20;;;;;;;-144.57;100.00;62443.72;4903509;29;20049;-68
2023/06/14 05:43:56;;;;;;;7.65;3.88;;;;;;;-144.57;100.00;62443.72;4951379;29;20517;-68
2023/06/14 05:46:25;;;;;;;4.15;3.40;;;;;;;-144.57;100.00;62443.72;4949840;29;20035;-68
2023/06/14 05:48:54;;;;;;;4.18;3.00;;;;;;;-144.57;100.00;62443.72;4933241;29;20043;-65
2023/06/14 05:51:21;;;;;;;4.75;3.30;;;;;;;-144.57;100.00;62443.72;4934635;29;20035;-67
2023/06/14 05:53:47;;;;;;;5.45;3.90;;;;;;;-144.57;100.00;62443.72;4934223;29;20051;-66
2023/06/14 05:56:13;;;;;;;6.25;3.60;;;;;;;-144.57;100.00;62443.72;4915979;29;20035;-64
2023/06/14 05:58:39;;;;;;;4.78;3.63;;;;;;;-144.57;100.00;62443.72;4950568;29;20047;-63
2023/06/14 06:01:05;;;;;;;6.70;4.05;;;;;;;-144.57;100.00;62443.72;4933903;29;20106;-64
2023/06/14 06:03:30;;;;;;;9.07;3.78;;;;;;;-144.57;100.00;62443.72;4933664;29;20035;-66
2023/06/14 06:05:56;;;;;;;6.63;3.83;;;;;;;-144.57;100.00;62443.72;4950664;29;20055;-64
2023/06/14 06:08:22;;;;;;;9.77;3.83;;;;;;;-144.57;100.00;62443.72;4942751;29;20046;-65
2023/06/14 06:10:47;;;;;;;6.95;3.47;;;;;;;-144.57;100.00;62443.72;4948892;28;20051;-64
2023/06/14 06:13:13;;;;;;;5.38;3.60;;;;;;;-144.57;100.00;62443.72;4951022;29;20050;-64
2023/06/14 06:15:38;;;;;;;5.93;3.53;;;;;;;-144.57;100.00;62443.72;4951631;28;20099;-64
2023/06/14 06:18:04;;;;;;;6.50;3.75;;;;;;;-144.57;100.00;62443.72;4952019;28;20043;-65
2023/06/14 06:20:31;;;;;;;5.25;3.83;;;;;;;-144.57;100.00;62443.72;4951782;28;20414;-64
2023/06/14 06:22:58;;;;;;;6.32;3.72;;;;;;;-144.57;100.00;62443.72;4952320;29;20082;-64
2023/06/14 06:25:25;;;;;;;14.30;4.60;;;;;;;-144.57;100.00;62443.72;4951779;28;20048;-65
2023/06/14 06:27:52;;;;;;;4.40;3.47;;;;;;;-144.57;100.00;62443.72;4933001;29;20418;-64
2023/06/14 06:30:19;;;;;;;5.82;3.30;;;;;;;-144.57;100.00;62443.72;4949565;28;20046;-65
2023/06/14 06:32:45;;;;;;;7.20;3.33;;;;;;;-144.57;100.00;62443.72;4948717;29;20050;-65
2023/06/14 06:35:12;;;;;;;4.28;3.40;;;;;;;-144.57;100.00;62443.72;4951343;28;20039;-64
2023/06/14 06:37:40;;;;;;;5.07;3.58;;;;;;;-144.57;100.00;62443.72;4934986;29;20521;-65
2023/06/14 06:40:07;;;;;;;6.63;3.08;;;;;;;-144.57;100.00;62443.72;4951185;28;20482;-64
2023/06/14 06:42:32;;;;;;;5.88;3.28;;;;;;;-144.57;100.00;62443.72;4915351;29;20052;-65
2023/06/14 06:45:02;;;;;;;4.35;3.20;;;;;;;-144.57;100.00;62443.72;4931758;29;20047;-65
2023/06/14 06:47:29;;;;;;;3.92;3.10;;;;;;;-144.57;100.00;62443.72;4953766;28;20055;-64
2023/06/14 06:49:55;;;;;;;5.82;3.33;;;;;;;-144.57;100.00;62443.72;4951602;29;20054;-64
2023/06/14 06:52:21;;;;;;;4.93;3.25;;;;;;;-144.57;100.00;62443.72;4951485;29;20078;-66
2023/06/14 06:54:46;;;;;;;5.57;3.00;;;;;;;-144.57;100.00;62443.72;4951066;28;20043;-65
2023/06/14 06:57:12;;;;;;;10.32;3.40;;;;;;;-144.57;100.00;62443.72;4933912;29;20051;-63
2023/06/14 06:59:38;;;;;;;5.18;3.20;;;;;;;-144.57;100.00;62443.72;4952039;28;20051;-64
2023/06/14 07:02:04;;;;;;;4.90;3.25;;;;;;;-144.57;100.00;62443.72;4955637;28;20059;-65
2023/06/14 07:04:31;;;;;;;3.63;3.15;;;;;;;-144.57;100.00;62443.72;4953271;28;20046;-65
2023/06/14 07:06:56;;;;;;;4.35;2.92;;;;;;;-144.57;100.00;62443.72;4953014;29;20066;-64
2023/06/14 07:09:22;;;;;;;5.72;2.80;;;;;;;-144.57;100.00;62443.72;4963217;28;20150;-65
2023/06/14 07:11:48;;;;;;;6.55;3.28;;;;;;;-144.57;100.00;62443.72;4973842;28;20050;-64
2023/06/14 07:14:14;;;;;;;4.97;3.55;;;;;;;-144.57;100.00;62443.72;4974322;28;20042;-72
2023/06/14 07:16:40;;;;;;;7.00;3.05;;;;;;;-144.57;100.00;62443.72;4962886;28;20034;-65
2023/06/14 07:19:06;;;;;;;7.20;3.20;;;;;;;-144.57;100.00;62443.72;4957317;28;20059;-66
2023/06/14 07:21:32;;;;;;;4.00;2.95;;;;;;;-144.57;100.00;62443.72;4935320;29;20054;-66
2023/06/14 07:23:57;;;;;;;7.07;3.13;;;;;;;-144.57;100.00;62443.72;4937477;29;20043;-67
2023/06/14 07:26:23;;;;;;;6.72;3.60;;;;;;;-144.57;100.00;62443.72;4955657;28;20087;-66
2023/06/14 07:28:49;;;;;;;5.20;3.10;;;;;;;-144.57;100.00;62443.72;4952889;29;20053;-66
2023/06/14 07:31:16;;;;;;;3.85;2.95;;;;;;;-144.57;100.00;62443.72;4955505;29;20043;-66
2023/06/14 07:33:42;;;;;;;4.95;3.17;;;;;;;-144.57;100.00;62443.72;4935805;29;20062;-66
2023/06/14 07:36:08;;;;;;;4.40;2.80;;;;;;;-144.57;100.00;62443.72;4954326;29;20043;-66
2023/06/14 07:38:34;;;;;;;3.55;3.00;;;;;;;-144.57;100.00;62443.72;4951893;29;20513;-67
2023/06/14 07:41:00;;;;;;;7.70;3.22;;;;;;;-144.57;100.00;62443.72;4935949;29;20054;-72
2023/06/14 07:43:26;;;;;;;7.07;3.28;;;;;;;-144.57;100.00;62443.72;4919450;29;20129;-67
2023/06/14 07:45:52;;;;;;;6.25;3.28;;;;;;;-144.57;100.00;62443.72;4935651;29;20501;-71
2023/06/14 07:48:18;;;;;;;6.05;3.28;;;;;;;-144.57;100.00;62443.72;4953799;29;20043;-65
2023/06/14 07:50:44;;;;;;;5.40;3.72;;;;;;;-144.57;100.00;62443.72;4953429;29;20369;-65
2023/06/14 07:53:09;;;;;;;6.45;3.15;;;;;;;-144.57;100.00;62443.72;4952938;29;20039;-67
2023/06/14 07:55:36;;;;;;;5.00;3.25;;;;;;;-144.57;100.00;62443.72;4952758;29;20110;-66
2023/06/14 07:58:03;;;;;;;4.95;3.40;;;;;;;-144.57;100.00;62443.72;4953162;29;20055;-66
2023/06/14 08:00:28;;;;;;;4.75;3.13;;;;;;;-144.57;100.00;62443.72;4952219;29;20473;-66
2023/06/14 08:02:58;;;;;;;3.72;3.20;;;;;;;-144.57;100.00;62443.72;4953218;29;20098;-66
2023/06/14 08:05:27;;;;;;;7.47;5.10;;;;;;;-144.57;100.00;62443.72;4944351;28;20042;-66
2023/06/14 08:07:53;;;;;;;4.93;2.90;;;;;;;-144.57;100.00;62443.72;4953929;29;20086;-65
2023/06/14 08:10:19;;;;;;;6.15;3.35;;;;;;;-144.57;100.00;62443.72;4935555;29;20054;-64
2023/06/14 08:12:45;;;;;;;6.18;3.50;;;;;;;-144.57;100.00;62443.72;4935790;29;20427;-64
2023/06/14 08:15:11;;;;;;;6.05;3.40;;;;;;;-144.57;100.00;62443.72;4954443;28;20047;-65
2023/06/14 08:17:37;;;;;;;4.18;3.20;;;;;;;-144.57;100.00;62443.72;4937288;29;20051;-69
2023/06/14 08:20:06;;;;;;;4.88;3.20;;;;;;;-144.57;100.00;62443.72;4952637;28;20145;-66
2023/06/14 08:22:33;;;;;;;6.38;3.17;;;;;;;-144.57;100.00;62443.72;4951323;29;20154;-65
2023/06/14 08:25:00;;;;;;;4.38;3.13;;;;;;;-144.57;100.00;62443.72;4932993;29;20517;-66
2023/06/14 08:27:27;;;;;;;4.55;3.58;;;;;;;-144.57;100.00;62443.72;4952412;29;20086;-67
2023/06/14 08:29:52;;;;;;;5.32;3.42;;;;;;;-144.57;100.00;62443.72;4951616;28;20075;-65
2023/06/14 08:32:18;;;;;;;4.65;3.25;;;;;;;-144.57;100.00;62443.72;4953364;29;20074;-67
2023/06/14 08:34:43;;;;;;;10.27;3.45;;;;;;;-144.57;100.00;62443.72;4952824;28;20043;-66
2023/06/14 08:37:09;;;;;;;8.95;4.60;;;;;;;-144.57;100.00;62443.72;4953388;29;20047;-66
2023/06/14 08:39:35;;;;;;;7.57;3.38;;;;;;;-144.57;100.00;62443.72;4952177;28;20076;-66
2023/06/14 08:42:02;;;;;;;7.45;3.60;;;;;;;-144.57;100.00;62443.72;4951568;29;20098;-65
2023/06/14 08:44:28;;;;;;;3.97;3.58;;;;;;;-144.57;100.00;62443.72;4953121;28;20078;-66
2023/06/14 08:46:56;;;;;;;7.85;3.80;;;;;;;-144.57;100.00;62443.72;4952925;29;20043;-67
2023/06/14 08:49:23;;;;;;;7.30;3.78;;;;;;;-144.57;100.00;62443.72;4935822;28;20126;-66
2023/06/14 08:51:51;;;;;;;10.18;4.03;;;;;;;-144.57;100.00;62443.72;4936263;29;20039;-65
2023/06/14 08:54:20;;;;;;;5.93;3.47;;;;;;;-144.57;100.00;62443.72;4936304;28;20043;-65
2023/06/14 08:56:48;;;;;;;9.10;3.42;;;;;;;-144.57;100.00;62443.72;4952620;29;20505;-66
2023/06/14 08:59:15;;;;;;;6.63;3.63;;;;;;;-144.57;100.00;62443.72;4934156;28;20402;-67
2023/06/14 09:01:40;;;;;;;5.20;3.67;;;;;;;-144.57;100.00;62443.72;4917066;29;20058;-66
2023/06/14 09:04:06;;;;;;;10.05;3.78;;;;;;;-144.57;100.00;62443.72;4916739;28;20044;-65
2023/06/14 09:06:32;;;;;;;6.95;4.00;;;;;;;-144.57;100.00;62443.72;4933628;29;20047;-65
2023/06/14 09:08:58;;;;;;;5.47;3.65;;;;;;;-144.57;100.00;62443.72;4950429;29;20143;-67
2023/06/14 09:11:25;;;;;;;6.95;3.20;;;;;;;-144.57;100.00;62443.72;4918932;29;20160;-65
2023/06/14 09:13:51;;;;;;;4.70;3.40;;;;;;;-144.57;100.00;62443.72;4952170;29;20090;-66
2023/06/14 09:16:17;;;;;;;4.50;3.42;;;;;;;-144.57;100.00;62443.72;4951849;28;20043;-66
2023/06/14 09:18:45;;;;;;;6.35;3.85;;;;;;;-144.57;100.00;62443.72;4950408;28;20047;-65
2023/06/14 09:21:12;;;;;;;6.88;3.40;;;;;;;-144.57;100.00;62443.72;4933559;29;20055;-65
2023/06/14 09:23:42;;;;;;;6.43;3.42;;;;;;;-144.57;100.00;62443.72;4942253;29;20043;-65
2023/06/14 09:26:09;;;;;;;4.78;3.30;;;;;;;-144.57;100.00;62443.72;4951724;29;20081;-65
2023/06/14 09:28:35;;;;;;;6.22;3.75;;;;;;;-144.57;100.00;62443.72;4951737;29;20051;-66
2023/06/14 09:31:01;;;;;;;8.75;3.60;;;;;;;-144.57;100.00;62443.72;4951736;29;20101;-65
2023/06/14 09:33:27;;;;;;;5.57;3.15;;;;;;;-144.57;100.00;62443.72;4951599;29;20087;-66
2023/06/14 09:35:54;;;;;;;5.75;3.60;;;;;;;-144.57;100.00;62443.72;4951478;29;20069;-67
2023/06/14 09:38:20;;;;;;;3.75;3.30;;;;;;;-144.57;100.00;62443.72;4951691;29;20055;-67
2023/06/14 09:40:46;;;;;;;5.57;3.50;;;;;;;-144.57;100.00;62443.72;4950561;29;20062;-66
2023/06/14 09:43:12;;;;;;;7.38;3.45;;;;;;;-144.57;100.00;62443.72;4950905;29;20039;-66
2023/06/14 09:45:45;;;;;;;6.50;3.75;;;;;;;-144.57;100.00;62443.72;4952006;29;20069;-65
2023/06/14 09:48:11;;;;;;;6.38;3.22;;;;;;;-144.57;100.00;62443.72;4918496;29;20047;-67
2023/06/14 09:50:36;;;;;;;5.45;3.47;;;;;;;-144.57;100.00;62443.72;4952380;29;20386;-67
2023/06/14 09:53:06;;;;;;;5.10;3.55;;;;;;;-144.57;100.00;62443.72;4933395;29;20491;-66
2023/06/14 09:55:36;;;;;;;10.75;3.50;;;;;;;-144.57;100.00;62443.72;4951972;29;20051;-66
2023/06/14 09:58:05;;;;;;;8.70;3.90;;;;;;;-144.57;100.00;62443.72;4934159;29;20047;-67
2023/06/14 10:00:33;;;;;;;6.03;3.40;;;;;;;-144.57;100.00;62443.72;4935258;29;20295;-67
2023/06/14 10:03:03;;;;;;;4.82;3.10;;;;;;;-144.57;100.00;62443.72;4951143;29;20062;-66
2023/06/14 10:05:29;;;;;;;4.15;3.08;;;;;;;-144.57;100.00;62443.72;4934548;29;20043;-65
2023/06/14 10:08:08;;;;;;;5.50;3.40;;;;;;;-144.57;100.00;62443.72;4933775;29;20580;-66
2023/06/14 10:10:34;;;;;;;6.35;4.35;;;;;;;-144.57;100.00;62443.72;4951558;29;20101;-66
2023/06/14 10:13:00;;;;;;;5.35;3.72;;;;;;;-144.57;100.00;62443.72;4918357;29;20074;-67
2023/06/14 10:15:32;;;;;;;5.43;3.55;;;;;;;-144.57;100.00;62443.72;4931837;29;20474;-65
2023/06/14 10:18:10;;;;;;;4.65;3.35;;;;;;;-144.57;100.00;62443.72;4946866;28;20051;-64
2023/06/14 10:20:53;;;;;;;5.40;3.15;;;;;;;-144.57;100.00;62443.72;4934952;29;20079;-65
2023/06/14 10:26:51;;;;;;;8.70;3.35;;;;;;;-144.57;100.00;62443.72;4959480;28;20051;-64
2023/06/14 10:29:17;;;;;;;4.75;3.20;;;;;;;-144.57;100.00;62443.72;4948837;29;20521;-64
2023/06/14 10:31:47;;;;;;;4.82;3.13;;;;;;;-144.57;100.00;62443.72;4960318;28;20055;-65
2023/06/14 10:34:25;;;;;;;4.55;3.28;;;;;;;-144.57;100.00;62443.72;4934687;29;20453;-64
2023/06/14 10:37:08;;;;;;;4.43;3.42;;;;;;;-144.57;100.00;62443.72;4947096;29;20047;-65
2023/06/14 10:39:45;;;;;;;3.45;3.15;;;;;;;-144.57;100.00;62443.72;4938660;29;20051;-65
2023/06/14 10:42:12;;;;;;;5.93;3.50;;;;;;;-144.57;100.00;62443.72;4956027;29;20524;-65
2023/06/14 10:44:59;;;;;;;5.50;3.47;;;;;;;-144.57;100.00;62443.72;4938263;29;20051;-64
2023/06/14 10:47:30;;;;;;;4.53;3.17;;;;;;;-144.57;100.00;62443.72;4955527;29;20459;-65
2023/06/14 10:50:04;;;;;;;5.03;3.00;;;;;;;-144.57;100.00;62443.72;4937910;29;20051;-64
2023/06/14 10:52:35;;;;;;;5.45;3.30;;;;;;;-144.57;100.00;62443.72;4954103;29;20188;-65
2023/06/14 10:55:01;;;;;;;4.57;3.20;;;;;;;-144.57;100.00;62443.72;4955696;29;20055;-64
2023/06/14 10:57:27;;;;;;;7.32;3.35;;;;;;;-144.57;100.00;62443.72;4938495;29;20035;-65
2023/06/14 10:59:54;;;;;;;5.75;3.40;;;;;;;-144.57;100.00;62443.72;4937751;29;20047;-66
2023/06/14 11:03:00;;;;;;;6.28;4.65;;;;;;;-144.57;100.00;62443.72;4953999;29;20114;-70
2023/06/14 11:05:27;;;;;;;3.72;3.30;;;;;;;-144.57;100.00;62443.72;4918692;29;20090;-71
2023/06/14 11:08:00;;;;;;;5.45;3.20;;;;;;;-144.57;100.00;62443.72;4919266;29;20051;-73
2023/06/14 11:10:39;;;;;;;10.60;4.25;;;;;;;-144.57;100.00;62443.72;4940165;29;20676;-72
2023/06/14 11:13:05;;;;;;;6.22;3.10;;;;;;;-144.57;100.00;62443.72;4945456;29;20051;-71
2023/06/14 11:15:35;;;;;;;5.07;3.15;;;;;;;-144.57;100.00;62443.72;4955604;29;20102;-70